sensor_id;sensor_type;location;lat;lon;timestamp;temperature;humidity
17146;DHT22;8688;54.444;18.444;2023-03-23T00:01:12;10.20;1.00
17146;DHT22;8688;54.444;18.444;2023-03-23T00:03:40;10.20;16.20
17146;DHT22;8688;54.444;18.444;2023-03-23T00:06:08;10.10;99.90
17146;DHT22;8688;54.444;18.444;2023-03-23T00:08:37;10.10;99.90
17146;DHT22;8688;54.444;18.444;2023-03-23T00:11:13;10.20;99.90
17146;DHT22;8688;54.444;18.444;2023-03-23T00:13:42;10.20;63.20
17146;DHT22;8688;54.444;18.444;2023-03-23T00:16:12;10.20;21.40
17146;DHT22;8688;54.444;18.444;2023-03-23T00:18:48;10.10;1.00
17146;DHT22;8688;54.444;18.444;2023-03-23T00:21:18;10.10;1.00
17146;DHT22;8688;54.444;18.444;2023-03-23T00:23:46;10.00;1.00
17146;DHT22;8688;54.444;18.444;2023-03-23T00:26:15;10.00;1.00
17146;DHT22;8688;54.444;18.444;2023-03-23T00:28:42;9.90;5.80
17146;DHT22;8688;54.444;18.444;2023-03-23T00:31:13;9.90;75.80
17146;DHT22;8688;54.444;18.444;2023-03-23T00:33:40;9.80;82.10
17146;DHT22;8688;54.444;18.444;2023-03-23T00:36:09;9.70;99.90
17146;DHT22;8688;54.444;18.444;2023-03-23T00:38:40;9.70;99.90
17146;DHT22;8688;54.444;18.444;2023-03-23T00:41:09;9.60;99.90
17146;DHT22;8688;54.444;18.444;2023-03-23T00:43:38;9.60;99.90
17146;DHT22;8688;54.444;18.444;2023-03-23T00:46:06;9.60;1.00
17146;DHT22;8688;54.444;18.444;2023-03-23T00:48:36;9.50;1.00
17146;DHT22;8688;54.444;18.444;2023-03-23T00:51:06;9.50;1.00
17146;DHT22;8688;54.444;18.444;2023-03-23T00:53:36;9.50;1.00
17146;DHT22;8688;54.444;18.444;2023-03-23T00:56:04;9.40;1.00
17146;DHT22;8688;54.444;18.444;2023-03-23T00:58:31;9.40;1.00
17146;DHT22;8688;54.444;18.444;2023-03-23T01:01:01;9.40;1.00
17146;DHT22;8688;54.444;18.444;2023-03-23T01:03:34;9.40;1.00
17146;DHT22;8688;54.444;18.444;2023-03-23T01:06:07;9.30;1.00
17146;DHT22;8688;54.444;18.444;2023-03-23T01:08:38;9.40;1.00
17146;DHT22;8688;54.444;18.444;2023-03-23T01:11:12;9.40;1.00
17146;DHT22;8688;54.444;18.444;2023-03-23T01:13:40;9.40;1.00
17146;DHT22;8688;54.444;18.444;2023-03-23T01:16:09;9.40;1.00
17146;DHT22;8688;54.444;18.444;2023-03-23T01:18:37;9.40;1.00
17146;DHT22;8688;54.444;18.444;2023-03-23T01:21:06;9.30;1.00
17146;DHT22;8688;54.444;18.444;2023-03-23T01:23:34;9.30;1.00
17146;DHT22;8688;54.444;18.444;2023-03-23T01:26:05;9.30;1.00
17146;DHT22;8688;54.444;18.444;2023-03-23T01:28:33;9.30;1.00
17146;DHT22;8688;54.444;18.444;2023-03-23T01:31:02;9.30;1.00
17146;DHT22;8688;54.444;18.444;2023-03-23T01:33:31;9.30;1.00
17146;DHT22;8688;54.444;18.444;2023-03-23T01:36:03;9.30;1.00
17146;DHT22;8688;54.444;18.444;2023-03-23T01:38:31;9.30;1.00
17146;DHT22;8688;54.444;18.444;2023-03-23T01:40:58;9.20;1.00
17146;DHT22;8688;54.444;18.444;2023-03-23T01:43:26;9.20;1.00
17146;DHT22;8688;54.444;18.444;2023-03-23T01:45:53;9.10;1.00
17146;DHT22;8688;54.444;18.444;2023-03-23T01:48:23;9.10;1.00
17146;DHT22;8688;54.444;18.444;2023-03-23T01:50:56;9.00;1.00
17146;DHT22;8688;54.444;18.444;2023-03-23T01:53:28;9.00;15.20
17146;DHT22;8688;54.444;18.444;2023-03-23T01:55:57;8.90;67.30
17146;DHT22;8688;54.444;18.444;2023-03-23T01:58:27;8.90;92.70
17146;DHT22;8688;54.444;18.444;2023-03-23T02:01:00;8.90;94.40
17146;DHT22;8688;54.444;18.444;2023-03-23T02:03:31;8.80;94.00
17146;DHT22;8688;54.444;18.444;2023-03-23T02:06:00;8.80;99.90
17146;DHT22;8688;54.444;18.444;2023-03-23T02:08:29;8.70;99.90
17146;DHT22;8688;54.444;18.444;2023-03-23T02:10:59;8.60;99.90
17146;DHT22;8688;54.444;18.444;2023-03-23T02:13:27;8.60;99.90
17146;DHT22;8688;54.444;18.444;2023-03-23T02:16:04;8.60;99.90
17146;DHT22;8688;54.444;18.444;2023-03-23T02:18:44;8.60;99.90
17146;DHT22;8688;54.444;18.444;2023-03-23T02:30:40;8.60;1.00
17146;DHT22;8688;54.444;18.444;2023-03-23T02:33:29;8.50;1.00
17146;DHT22;8688;54.444;18.444;2023-03-23T02:36:03;8.50;1.00
17146;DHT22;8688;54.444;18.444;2023-03-23T02:38:35;8.50;1.00
17146;DHT22;8688;54.444;18.444;2023-03-23T02:41:04;8.40;1.00
17146;DHT22;8688;54.444;18.444;2023-03-23T02:43:36;8.40;1.00
17146;DHT22;8688;54.444;18.444;2023-03-23T02:46:06;8.40;1.00
17146;DHT22;8688;54.444;18.444;2023-03-23T02:48:38;8.40;1.00
17146;DHT22;8688;54.444;18.444;2023-03-23T02:51:07;8.30;1.00
17146;DHT22;8688;54.444;18.444;2023-03-23T02:53:39;8.30;1.00
17146;DHT22;8688;54.444;18.444;2023-03-23T02:56:08;8.30;1.00
17146;DHT22;8688;54.444;18.444;2023-03-23T02:58:36;8.30;1.00
17146;DHT22;8688;54.444;18.444;2023-03-23T03:01:48;8.30;1.00
17146;DHT22;8688;54.444;18.444;2023-03-23T03:04:22;8.20;1.00
17146;DHT22;8688;54.444;18.444;2023-03-23T03:09:52;8.20;1.00
17146;DHT22;8688;54.444;18.444;2023-03-23T03:12:30;8.20;1.00
17146;DHT22;8688;54.444;18.444;2023-03-23T03:15:02;8.20;1.00
17146;DHT22;8688;54.444;18.444;2023-03-23T03:17:38;8.20;1.00
17146;DHT22;8688;54.444;18.444;2023-03-23T03:20:11;8.10;1.00
17146;DHT22;8688;54.444;18.444;2023-03-23T03:22:41;8.10;1.00
17146;DHT22;8688;54.444;18.444;2023-03-23T03:25:11;8.00;1.00
17146;DHT22;8688;54.444;18.444;2023-03-23T03:27:43;7.90;1.00
17146;DHT22;8688;54.444;18.444;2023-03-23T03:30:14;7.80;1.00
17146;DHT22;8688;54.444;18.444;2023-03-23T03:32:47;7.80;1.00
17146;DHT22;8688;54.444;18.444;2023-03-23T03:35:18;7.70;1.00
17146;DHT22;8688;54.444;18.444;2023-03-23T03:37:46;7.70;1.00
17146;DHT22;8688;54.444;18.444;2023-03-23T03:40:15;7.70;1.00
17146;DHT22;8688;54.444;18.444;2023-03-23T03:42:45;7.70;5.60
17146;DHT22;8688;54.444;18.444;2023-03-23T03:45:16;7.60;22.80
17146;DHT22;8688;54.444;18.444;2023-03-23T03:47:44;7.70;59.70
17146;DHT22;8688;54.444;18.444;2023-03-23T03:50:11;7.70;95.20
17146;DHT22;8688;54.444;18.444;2023-03-23T03:52:40;7.80;99.90
17146;DHT22;8688;54.444;18.444;2023-03-23T03:55:09;7.80;99.90
17146;DHT22;8688;54.444;18.444;2023-03-23T03:57:37;7.90;99.90
17146;DHT22;8688;54.444;18.444;2023-03-23T04:00:06;7.90;99.90
17146;DHT22;8688;54.444;18.444;2023-03-23T04:02:41;8.00;99.90
17146;DHT22;8688;54.444;18.444;2023-03-23T04:05:09;8.00;99.90
17146;DHT22;8688;54.444;18.444;2023-03-23T04:07:37;8.10;99.90
17146;DHT22;8688;54.444;18.444;2023-03-23T04:10:08;8.10;99.90
17146;DHT22;8688;54.444;18.444;2023-03-23T04:12:36;8.10;95.50
17146;DHT22;8688;54.444;18.444;2023-03-23T04:15:05;8.10;94.50
17146;DHT22;8688;54.444;18.444;2023-03-23T04:17:33;8.20;75.90
17146;DHT22;8688;54.444;18.444;2023-03-23T04:20:01;8.20;51.40
17146;DHT22;8688;54.444;18.444;2023-03-23T04:22:33;8.20;39.40
17146;DHT22;8688;54.444;18.444;2023-03-23T04:25:01;8.20;24.60
17146;DHT22;8688;54.444;18.444;2023-03-23T04:27:33;8.20;14.90
17146;DHT22;8688;54.444;18.444;2023-03-23T04:30:01;8.20;6.60
17146;DHT22;8688;54.444;18.444;2023-03-23T04:32:30;8.20;1.00
17146;DHT22;8688;54.444;18.444;2023-03-23T04:34:58;8.20;1.00
17146;DHT22;8688;54.444;18.444;2023-03-23T04:37:27;8.20;1.00
17146;DHT22;8688;54.444;18.444;2023-03-23T04:40:00;8.20;1.00
17146;DHT22;8688;54.444;18.444;2023-03-23T04:42:34;8.20;1.00
17146;DHT22;8688;54.444;18.444;2023-03-23T04:45:04;8.20;1.00
17146;DHT22;8688;54.444;18.444;2023-03-23T04:47:34;8.30;1.00
17146;DHT22;8688;54.444;18.444;2023-03-23T04:50:07;8.30;1.00
17146;DHT22;8688;54.444;18.444;2023-03-23T04:52:35;8.30;1.00
17146;DHT22;8688;54.444;18.444;2023-03-23T04:55:07;8.40;1.00
17146;DHT22;8688;54.444;18.444;2023-03-23T04:57:37;8.40;1.00
17146;DHT22;8688;54.444;18.444;2023-03-23T05:00:06;8.50;1.00
17146;DHT22;8688;54.444;18.444;2023-03-23T05:02:35;8.50;1.00
17146;DHT22;8688;54.444;18.444;2023-03-23T05:05:03;8.50;1.00
17146;DHT22;8688;54.444;18.444;2023-03-23T05:07:30;8.60;1.00
17146;DHT22;8688;54.444;18.444;2023-03-23T05:09:58;8.60;1.00
17146;DHT22;8688;54.444;18.444;2023-03-23T05:12:25;8.60;1.00
17146;DHT22;8688;54.444;18.444;2023-03-23T05:14:54;8.70;1.00
17146;DHT22;8688;54.444;18.444;2023-03-23T05:17:22;8.70;1.00
17146;DHT22;8688;54.444;18.444;2023-03-23T05:19:50;8.70;1.00
17146;DHT22;8688;54.444;18.444;2023-03-23T05:22:17;8.80;1.00
17146;DHT22;8688;54.444;18.444;2023-03-23T05:24:49;8.80;1.00
17146;DHT22;8688;54.444;18.444;2023-03-23T05:27:17;8.90;1.00
17146;DHT22;8688;54.444;18.444;2023-03-23T05:29:46;8.90;1.00
17146;DHT22;8688;54.444;18.444;2023-03-23T05:32:16;9.00;1.00
17146;DHT22;8688;54.444;18.444;2023-03-23T05:34:45;9.00;1.00
17146;DHT22;8688;54.444;18.444;2023-03-23T05:37:13;9.00;1.00
17146;DHT22;8688;54.444;18.444;2023-03-23T05:39:40;9.10;1.00
17146;DHT22;8688;54.444;18.444;2023-03-23T05:42:08;9.10;1.00
17146;DHT22;8688;54.444;18.444;2023-03-23T05:44:36;9.20;1.00
17146;DHT22;8688;54.444;18.444;2023-03-23T05:47:04;9.20;1.00
17146;DHT22;8688;54.444;18.444;2023-03-23T05:49:33;9.30;1.00
17146;DHT22;8688;54.444;18.444;2023-03-23T05:52:02;9.30;1.00
17146;DHT22;8688;54.444;18.444;2023-03-23T05:54:29;9.30;1.00
17146;DHT22;8688;54.444;18.444;2023-03-23T05:56:57;9.40;1.00
17146;DHT22;8688;54.444;18.444;2023-03-23T05:59:24;9.40;1.00
17146;DHT22;8688;54.444;18.444;2023-03-23T06:01:52;9.40;1.00
17146;DHT22;8688;54.444;18.444;2023-03-23T06:04:21;9.50;1.00
17146;DHT22;8688;54.444;18.444;2023-03-23T06:06:52;9.50;99.90
17146;DHT22;8688;54.444;18.444;2023-03-23T06:09:20;9.60;99.90
17146;DHT22;8688;54.444;18.444;2023-03-23T06:11:49;9.60;1.00
17146;DHT22;8688;54.444;18.444;2023-03-23T06:14:18;9.60;1.00
17146;DHT22;8688;54.444;18.444;2023-03-23T06:16:45;9.60;1.00
17146;DHT22;8688;54.444;18.444;2023-03-23T06:22:03;9.60;1.00
17146;DHT22;8688;54.444;18.444;2023-03-23T06:24:31;9.60;1.00
17146;DHT22;8688;54.444;18.444;2023-03-23T06:27:01;9.60;1.00
17146;DHT22;8688;54.444;18.444;2023-03-23T06:29:29;9.60;1.00
17146;DHT22;8688;54.444;18.444;2023-03-23T06:31:59;9.50;1.00
17146;DHT22;8688;54.444;18.444;2023-03-23T06:34:28;9.50;1.00
17146;DHT22;8688;54.444;18.444;2023-03-23T06:36:55;9.60;1.00
17146;DHT22;8688;54.444;18.444;2023-03-23T06:39:24;9.60;1.00
17146;DHT22;8688;54.444;18.444;2023-03-23T06:41:51;9.70;99.90
17146;DHT22;8688;54.444;18.444;2023-03-23T06:44:20;9.70;99.90
17146;DHT22;8688;54.444;18.444;2023-03-23T06:46:47;9.80;99.90
17146;DHT22;8688;54.444;18.444;2023-03-23T06:49:15;9.80;1.00
17146;DHT22;8688;54.444;18.444;2023-03-23T06:51:43;9.90;1.00
17146;DHT22;8688;54.444;18.444;2023-03-23T06:54:11;10.00;1.00
17146;DHT22;8688;54.444;18.444;2023-03-23T06:56:39;10.00;1.00
17146;DHT22;8688;54.444;18.444;2023-03-23T06:59:07;10.00;99.90
17146;DHT22;8688;54.444;18.444;2023-03-23T07:01:36;10.10;1.00
17146;DHT22;8688;54.444;18.444;2023-03-23T07:04:04;10.10;99.90
17146;DHT22;8688;54.444;18.444;2023-03-23T07:06:31;10.10;99.90
17146;DHT22;8688;54.444;18.444;2023-03-23T07:08:59;10.20;99.90
17146;DHT22;8688;54.444;18.444;2023-03-23T07:11:26;10.20;99.90
17146;DHT22;8688;54.444;18.444;2023-03-23T07:13:55;10.30;99.90
17146;DHT22;8688;54.444;18.444;2023-03-23T07:16:23;10.30;99.90
17146;DHT22;8688;54.444;18.444;2023-03-23T07:18:52;10.30;99.90
17146;DHT22;8688;54.444;18.444;2023-03-23T07:21:19;10.30;63.10
17146;DHT22;8688;54.444;18.444;2023-03-23T07:23:47;10.30;1.00
17146;DHT22;8688;54.444;18.444;2023-03-23T07:26:14;10.30;3.40
17146;DHT22;8688;54.444;18.444;2023-03-23T07:28:42;10.30;1.00
17146;DHT22;8688;54.444;18.444;2023-03-23T07:31:13;10.40;1.00
17146;DHT22;8688;54.444;18.444;2023-03-23T07:33:40;10.50;1.00
17146;DHT22;8688;54.444;18.444;2023-03-23T07:36:09;10.50;1.00
17146;DHT22;8688;54.444;18.444;2023-03-23T07:38:36;10.60;99.90
17146;DHT22;8688;54.444;18.444;2023-03-23T07:41:05;10.70;99.90
17146;DHT22;8688;54.444;18.444;2023-03-23T07:43:33;10.80;38.60
17146;DHT22;8688;54.444;18.444;2023-03-23T07:46:00;10.90;1.00
17146;DHT22;8688;54.444;18.444;2023-03-23T07:48:29;11.00;1.00
17146;DHT22;8688;54.444;18.444;2023-03-23T07:50:58;11.00;99.90
17146;DHT22;8688;54.444;18.444;2023-03-23T07:53:26;11.10;99.90
17146;DHT22;8688;54.444;18.444;2023-03-23T07:55:53;11.10;1.00
17146;DHT22;8688;54.444;18.444;2023-03-23T07:58:21;11.20;1.00
17146;DHT22;8688;54.444;18.444;2023-03-23T08:00:48;11.40;1.00
17146;DHT22;8688;54.444;18.444;2023-03-23T08:03:18;11.50;1.00
17146;DHT22;8688;54.444;18.444;2023-03-23T08:05:47;11.60;99.90
17146;DHT22;8688;54.444;18.444;2023-03-23T08:08:16;11.70;99.90
17146;DHT22;8688;54.444;18.444;2023-03-23T08:10:44;11.70;1.00
17146;DHT22;8688;54.444;18.444;2023-03-23T08:13:11;11.70;1.00
17146;DHT22;8688;54.444;18.444;2023-03-23T08:15:40;11.80;1.00
17146;DHT22;8688;54.444;18.444;2023-03-23T08:18:07;11.90;25.60
17146;DHT22;8688;54.444;18.444;2023-03-23T08:20:35;11.90;1.00
17146;DHT22;8688;54.444;18.444;2023-03-23T08:23:04;11.80;1.00
17146;DHT22;8688;54.444;18.444;2023-03-23T08:25:32;11.80;1.00
17146;DHT22;8688;54.444;18.444;2023-03-23T08:28:00;11.80;99.90
17146;DHT22;8688;54.444;18.444;2023-03-23T08:30:29;11.90;20.20
17146;DHT22;8688;54.444;18.444;2023-03-23T08:32:59;11.80;99.90
17146;DHT22;8688;54.444;18.444;2023-03-23T08:35:27;11.70;99.90
17146;DHT22;8688;54.444;18.444;2023-03-23T08:37:55;11.60;99.90
17146;DHT22;8688;54.444;18.444;2023-03-23T08:40:25;11.60;99.90
17146;DHT22;8688;54.444;18.444;2023-03-23T08:42:53;11.60;99.90
17146;DHT22;8688;54.444;18.444;2023-03-23T08:45:23;11.40;99.90
17146;DHT22;8688;54.444;18.444;2023-03-23T08:47:52;11.30;1.00
17146;DHT22;8688;54.444;18.444;2023-03-23T08:50:22;11.20;1.00
17146;DHT22;8688;54.444;18.444;2023-03-23T08:52:50;11.20;1.00
17146;DHT22;8688;54.444;18.444;2023-03-23T08:55:19;11.20;1.00
17146;DHT22;8688;54.444;18.444;2023-03-23T08:57:48;11.20;1.00
17146;DHT22;8688;54.444;18.444;2023-03-23T09:00:19;11.20;1.00
17146;DHT22;8688;54.444;18.444;2023-03-23T09:02:48;11.20;99.90
17146;DHT22;8688;54.444;18.444;2023-03-23T09:05:18;11.30;99.90
17146;DHT22;8688;54.444;18.444;2023-03-23T09:07:47;11.30;99.90
17146;DHT22;8688;54.444;18.444;2023-03-23T09:10:16;11.30;1.00
17146;DHT22;8688;54.444;18.444;2023-03-23T09:12:46;11.30;99.90
17146;DHT22;8688;54.444;18.444;2023-03-23T09:15:16;11.30;1.00
17146;DHT22;8688;54.444;18.444;2023-03-23T09:17:45;11.30;1.00
17146;DHT22;8688;54.444;18.444;2023-03-23T09:20:16;11.30;1.00
17146;DHT22;8688;54.444;18.444;2023-03-23T09:22:48;11.30;99.90
17146;DHT22;8688;54.444;18.444;2023-03-23T09:25:17;11.30;1.00
17146;DHT22;8688;54.444;18.444;2023-03-23T09:27:49;11.30;55.90
17146;DHT22;8688;54.444;18.444;2023-03-23T09:30:20;11.20;1.00
17146;DHT22;8688;54.444;18.444;2023-03-23T09:32:48;11.20;1.00
17146;DHT22;8688;54.444;18.444;2023-03-23T09:35:16;11.10;99.90
17146;DHT22;8688;54.444;18.444;2023-03-23T09:37:44;11.10;1.00
17146;DHT22;8688;54.444;18.444;2023-03-23T09:40:15;11.10;1.00
17146;DHT22;8688;54.444;18.444;2023-03-23T09:45:43;11.00;27.90
17146;DHT22;8688;54.444;18.444;2023-03-23T09:51:19;11.00;99.90
17146;DHT22;8688;54.444;18.444;2023-03-23T09:53:51;11.00;1.00
17146;DHT22;8688;54.444;18.444;2023-03-23T09:56:20;11.00;50.80
17146;DHT22;8688;54.444;18.444;2023-03-23T09:58:53;11.00;1.00
17146;DHT22;8688;54.444;18.444;2023-03-23T10:01:27;11.10;99.90
17146;DHT22;8688;54.444;18.444;2023-03-23T10:04:02;11.10;1.00
17146;DHT22;8688;54.444;18.444;2023-03-23T10:06:30;11.20;1.00
17146;DHT22;8688;54.444;18.444;2023-03-23T10:09:00;11.20;1.00
17146;DHT22;8688;54.444;18.444;2023-03-23T10:11:37;11.20;1.00
17146;DHT22;8688;54.444;18.444;2023-03-23T10:14:25;11.20;54.10
17146;DHT22;8688;54.444;18.444;2023-03-23T10:17:03;11.20;1.00
17146;DHT22;8688;54.444;18.444;2023-03-23T10:19:35;11.20;1.00
17146;DHT22;8688;54.444;18.444;2023-03-23T10:22:10;11.30;1.00
17146;DHT22;8688;54.444;18.444;2023-03-23T10:24:43;11.30;1.00
17146;DHT22;8688;54.444;18.444;2023-03-23T10:27:19;11.30;1.00
17146;DHT22;8688;54.444;18.444;2023-03-23T10:29:53;11.30;1.00
17146;DHT22;8688;54.444;18.444;2023-03-23T10:32:39;11.40;1.00
17146;DHT22;8688;54.444;18.444;2023-03-23T10:35:13;11.40;1.00
17146;DHT22;8688;54.444;18.444;2023-03-23T10:37:45;11.40;99.90
17146;DHT22;8688;54.444;18.444;2023-03-23T10:40:16;11.50;1.00
17146;DHT22;8688;54.444;18.444;2023-03-23T10:42:45;11.50;1.00
17146;DHT22;8688;54.444;18.444;2023-03-23T10:45:17;11.40;1.00
17146;DHT22;8688;54.444;18.444;2023-03-23T10:47:52;11.50;1.00
17146;DHT22;8688;54.444;18.444;2023-03-23T10:50:25;11.50;1.00
17146;DHT22;8688;54.444;18.444;2023-03-23T10:52:56;11.50;1.00
17146;DHT22;8688;54.444;18.444;2023-03-23T10:55:34;11.50;1.00
17146;DHT22;8688;54.444;18.444;2023-03-23T10:58:05;11.50;1.00
17146;DHT22;8688;54.444;18.444;2023-03-23T11:00:33;11.50;1.00
17146;DHT22;8688;54.444;18.444;2023-03-23T11:03:38;11.50;1.00
17146;DHT22;8688;54.444;18.444;2023-03-23T11:06:07;11.60;1.00
17146;DHT22;8688;54.444;18.444;2023-03-23T11:08:46;11.70;1.00
17146;DHT22;8688;54.444;18.444;2023-03-23T11:11:16;11.70;99.90
17146;DHT22;8688;54.444;18.444;2023-03-23T11:13:45;11.60;1.00
17146;DHT22;8688;54.444;18.444;2023-03-23T11:16:26;11.70;1.00
17146;DHT22;8688;54.444;18.444;2023-03-23T11:18:56;11.70;1.00
17146;DHT22;8688;54.444;18.444;2023-03-23T11:21:25;11.70;1.00
17146;DHT22;8688;54.444;18.444;2023-03-23T11:23:55;11.70;99.90
17146;DHT22;8688;54.444;18.444;2023-03-23T11:26:26;11.70;99.90
17146;DHT22;8688;54.444;18.444;2023-03-23T11:28:57;11.70;1.00
17146;DHT22;8688;54.444;18.444;2023-03-23T11:31:28;11.70;99.90
17146;DHT22;8688;54.444;18.444;2023-03-23T11:34:01;11.60;99.90
17146;DHT22;8688;54.444;18.444;2023-03-23T11:36:31;11.60;99.90
17146;DHT22;8688;54.444;18.444;2023-03-23T11:39:00;11.60;99.90
17146;DHT22;8688;54.444;18.444;2023-03-23T11:41:33;11.70;99.90
17146;DHT22;8688;54.444;18.444;2023-03-23T11:44:09;11.80;49.40
17146;DHT22;8688;54.444;18.444;2023-03-23T11:46:44;11.90;99.90
17146;DHT22;8688;54.444;18.444;2023-03-23T11:49:22;12.10;1.00
17146;DHT22;8688;54.444;18.444;2023-03-23T11:51:54;12.10;1.00
17146;DHT22;8688;54.444;18.444;2023-03-23T11:54:28;12.20;99.90
17146;DHT22;8688;54.444;18.444;2023-03-23T11:56:57;12.40;83.30
17146;DHT22;8688;54.444;18.444;2023-03-23T11:59:28;12.50;1.00
17146;DHT22;8688;54.444;18.444;2023-03-23T12:02:32;12.60;99.90
17146;DHT22;8688;54.444;18.444;2023-03-23T12:08:32;12.80;1.00
17146;DHT22;8688;54.444;18.444;2023-03-23T12:11:10;12.80;99.90
17146;DHT22;8688;54.444;18.444;2023-03-23T12:13:52;12.90;99.90
17146;DHT22;8688;54.444;18.444;2023-03-23T12:16:35;12.90;99.90
17146;DHT22;8688;54.444;18.444;2023-03-23T12:19:12;12.80;99.90
17146;DHT22;8688;54.444;18.444;2023-03-23T12:21:50;12.80;35.00
17146;DHT22;8688;54.444;18.444;2023-03-23T12:24:30;12.80;1.00
17146;DHT22;8688;54.444;18.444;2023-03-23T12:27:06;12.90;1.00
17146;DHT22;8688;54.444;18.444;2023-03-23T12:29:46;12.90;34.50
17146;DHT22;8688;54.444;18.444;2023-03-23T12:32:33;12.90;1.00
17146;DHT22;8688;54.444;18.444;2023-03-23T12:35:17;13.00;1.00
17146;DHT22;8688;54.444;18.444;2023-03-23T12:38:01;13.00;1.00
17146;DHT22;8688;54.444;18.444;2023-03-23T12:40:42;13.00;1.00
17146;DHT22;8688;54.444;18.444;2023-03-23T12:43:15;12.90;99.90
17146;DHT22;8688;54.444;18.444;2023-03-23T12:46:04;13.00;99.90
17146;DHT22;8688;54.444;18.444;2023-03-23T12:48:39;13.00;99.90
17146;DHT22;8688;54.444;18.444;2023-03-23T12:51:17;13.00;99.90
17146;DHT22;8688;54.444;18.444;2023-03-23T12:53:51;13.00;99.90
17146;DHT22;8688;54.444;18.444;2023-03-23T12:56:26;13.00;99.90
17146;DHT22;8688;54.444;18.444;2023-03-23T12:58:59;13.10;35.40
17146;DHT22;8688;54.444;18.444;2023-03-23T13:01:30;13.20;1.00
17146;DHT22;8688;54.444;18.444;2023-03-23T13:04:04;13.20;1.00
17146;DHT22;8688;54.444;18.444;2023-03-23T13:06:36;13.10;1.00
17146;DHT22;8688;54.444;18.444;2023-03-23T13:09:09;13.20;1.00
17146;DHT22;8688;54.444;18.444;2023-03-23T13:11:41;13.30;1.00
17146;DHT22;8688;54.444;18.444;2023-03-23T13:14:31;13.40;1.00
17146;DHT22;8688;54.444;18.444;2023-03-23T13:17:06;13.20;1.00
17146;DHT22;8688;54.444;18.444;2023-03-23T13:19:59;13.30;1.00
17146;DHT22;8688;54.444;18.444;2023-03-23T13:22:36;13.30;1.00
17146;DHT22;8688;54.444;18.444;2023-03-23T13:25:10;13.30;1.00
17146;DHT22;8688;54.444;18.444;2023-03-23T13:27:41;13.20;1.00
17146;DHT22;8688;54.444;18.444;2023-03-23T13:30:19;13.20;1.00
17146;DHT22;8688;54.444;18.444;2023-03-23T13:32:50;13.20;1.00
17146;DHT22;8688;54.444;18.444;2023-03-23T13:35:20;13.40;1.00
17146;DHT22;8688;54.444;18.444;2023-03-23T13:37:50;13.30;1.00
17146;DHT22;8688;54.444;18.444;2023-03-23T13:40:25;13.40;1.00
17146;DHT22;8688;54.444;18.444;2023-03-23T13:42:56;13.40;1.00
17146;DHT22;8688;54.444;18.444;2023-03-23T13:45:36;13.60;1.00
17146;DHT22;8688;54.444;18.444;2023-03-23T13:48:16;13.60;99.90
17146;DHT22;8688;54.444;18.444;2023-03-23T13:50:50;13.70;99.90
17146;DHT22;8688;54.444;18.444;2023-03-23T13:56:31;13.50;99.90
17146;DHT22;8688;54.444;18.444;2023-03-23T13:59:07;13.40;99.90
17146;DHT22;8688;54.444;18.444;2023-03-23T14:01:40;13.30;99.90
17146;DHT22;8688;54.444;18.444;2023-03-23T14:04:13;13.20;99.90
17146;DHT22;8688;54.444;18.444;2023-03-23T14:06:42;13.10;99.90
17146;DHT22;8688;54.444;18.444;2023-03-23T14:09:14;13.10;99.90
17146;DHT22;8688;54.444;18.444;2023-03-23T14:11:50;13.10;99.90
17146;DHT22;8688;54.444;18.444;2023-03-23T14:14:26;13.00;99.90
17146;DHT22;8688;54.444;18.444;2023-03-23T14:17:06;13.00;99.90
17146;DHT22;8688;54.444;18.444;2023-03-23T14:19:38;12.90;99.90
17146;DHT22;8688;54.444;18.444;2023-03-23T14:22:18;12.90;99.90
17146;DHT22;8688;54.444;18.444;2023-03-23T14:24:46;12.80;99.90
17146;DHT22;8688;54.444;18.444;2023-03-23T14:27:16;12.80;99.90
17146;DHT22;8688;54.444;18.444;2023-03-23T14:29:45;12.80;99.90
17146;DHT22;8688;54.444;18.444;2023-03-23T14:32:15;12.90;99.90
17146;DHT22;8688;54.444;18.444;2023-03-23T14:34:43;12.90;99.90
17146;DHT22;8688;54.444;18.444;2023-03-23T14:37:31;12.90;99.90
17146;DHT22;8688;54.444;18.444;2023-03-23T14:40:13;13.00;99.90
17146;DHT22;8688;54.444;18.444;2023-03-23T14:42:42;13.10;99.90
17146;DHT22;8688;54.444;18.444;2023-03-23T14:45:18;13.10;99.90
17146;DHT22;8688;54.444;18.444;2023-03-23T14:48:25;13.10;99.90
17146;DHT22;8688;54.444;18.444;2023-03-23T14:51:18;13.10;99.90
17146;DHT22;8688;54.444;18.444;2023-03-23T14:53:48;13.00;99.90
17146;DHT22;8688;54.444;18.444;2023-03-23T14:56:20;12.90;99.90
17146;DHT22;8688;54.444;18.444;2023-03-23T14:59:02;12.80;99.90
17146;DHT22;8688;54.444;18.444;2023-03-23T15:01:41;12.80;99.90
17146;DHT22;8688;54.444;18.444;2023-03-23T15:07:30;12.80;99.90
17146;DHT22;8688;54.444;18.444;2023-03-23T15:10:06;12.80;99.90
17146;DHT22;8688;54.444;18.444;2023-03-23T15:12:34;12.80;99.90
17146;DHT22;8688;54.444;18.444;2023-03-23T15:18:37;12.80;99.90
17146;DHT22;8688;54.444;18.444;2023-03-23T15:21:24;12.80;99.90
17146;DHT22;8688;54.444;18.444;2023-03-23T15:24:27;12.90;1.00
17146;DHT22;8688;54.444;18.444;2023-03-23T15:27:10;12.90;1.00
17146;DHT22;8688;54.444;18.444;2023-03-23T15:29:47;12.90;1.00
17146;DHT22;8688;54.444;18.444;2023-03-23T15:32:24;12.90;1.00
17146;DHT22;8688;54.444;18.444;2023-03-23T15:34:53;12.90;1.00
17146;DHT22;8688;54.444;18.444;2023-03-23T15:37:25;12.80;1.00
17146;DHT22;8688;54.444;18.444;2023-03-23T15:39:54;12.80;1.00
17146;DHT22;8688;54.444;18.444;2023-03-23T15:42:24;12.70;1.00
17146;DHT22;8688;54.444;18.444;2023-03-23T15:44:57;12.70;1.00
17146;DHT22;8688;54.444;18.444;2023-03-23T15:47:35;12.60;1.00
17146;DHT22;8688;54.444;18.444;2023-03-23T15:50:11;12.60;1.00
17146;DHT22;8688;54.444;18.444;2023-03-23T15:52:38;12.50;1.00
17146;DHT22;8688;54.444;18.444;2023-03-23T15:55:19;12.40;28.30
17146;DHT22;8688;54.444;18.444;2023-03-23T15:57:48;12.40;99.90
17146;DHT22;8688;54.444;18.444;2023-03-23T16:00:17;12.30;99.90
17146;DHT22;8688;54.444;18.444;2023-03-23T16:02:46;12.30;99.90
17146;DHT22;8688;54.444;18.444;2023-03-23T16:05:15;12.20;99.90
17146;DHT22;8688;54.444;18.444;2023-03-23T16:07:43;12.20;1.00
17146;DHT22;8688;54.444;18.444;2023-03-23T16:10:15;12.20;1.00
17146;DHT22;8688;54.444;18.444;2023-03-23T16:12:44;12.20;1.00
17146;DHT22;8688;54.444;18.444;2023-03-23T16:15:12;12.10;1.00
17146;DHT22;8688;54.444;18.444;2023-03-23T16:17:39;12.10;1.00
17146;DHT22;8688;54.444;18.444;2023-03-23T16:20:17;12.00;19.10
17146;DHT22;8688;54.444;18.444;2023-03-23T16:22:45;11.90;99.90
17146;DHT22;8688;54.444;18.444;2023-03-23T16:25:14;11.80;99.90
17146;DHT22;8688;54.444;18.444;2023-03-23T16:27:42;11.90;99.90
17146;DHT22;8688;54.444;18.444;2023-03-23T16:30:14;11.80;1.00
17146;DHT22;8688;54.444;18.444;2023-03-23T16:32:43;11.80;99.90
17146;DHT22;8688;54.444;18.444;2023-03-23T16:35:14;10.70;1.00
17146;DHT22;8688;54.444;18.444;2023-03-23T16:37:44;10.10;1.00
17146;DHT22;8688;54.444;18.444;2023-03-23T16:40:12;9.80;1.00
17146;DHT22;8688;54.444;18.444;2023-03-23T16:42:40;9.70;1.00
17146;DHT22;8688;54.444;18.444;2023-03-23T16:45:09;9.60;1.00
17146;DHT22;8688;54.444;18.444;2023-03-23T16:47:38;9.50;1.00